createdAt,value
2017-04-26T00:00:21.462Z,1004.48
2017-04-26T00:01:21.469Z,1004.49
2017-04-26T00:02:21.475Z,1004.5
2017-04-26T00:03:21.482Z,1004.47
2017-04-26T00:04:21.487Z,1004.51
2017-04-26T00:05:21.494Z,1004.48
2017-04-26T00:06:21.551Z,1004.49
2017-04-26T00:07:21.508Z,1004.47
2017-04-26T00:08:21.515Z,1004.46
2017-04-26T00:09:21.519Z,1004.42
2017-04-26T00:10:21.526Z,1004.45
2017-04-26T00:11:21.532Z,1004.42
2017-04-26T00:12:21.539Z,1004.41
2017-04-26T00:13:21.546Z,1004.43
2017-04-26T00:14:21.554Z,1004.44
2017-04-26T00:15:21.557Z,1004.43
2017-04-26T00:16:21.564Z,1004.43
2017-04-26T00:17:21.571Z,1004.41
2017-04-26T00:18:21.578Z,1004.45
2017-04-26T00:19:21.583Z,1004.41
2017-04-26T00:20:21.589Z,1004.45
2017-04-26T00:21:21.596Z,1004.45
2017-04-26T00:22:21.602Z,1004.4
2017-04-26T00:23:21.609Z,1004.46
2017-04-26T00:24:21.614Z,1004.43
2017-04-26T00:25:21.622Z,1004.44
2017-04-26T00:31:54.639Z,1004.51
2017-04-26T00:32:54.696Z,1004.53
2017-04-26T00:33:54.654Z,1004.54
2017-04-26T00:34:54.659Z,1004.54
2017-04-26T00:35:54.667Z,1004.54
2017-04-26T00:36:54.722Z,1004.51
2017-04-26T00:37:54.679Z,1004.5
2017-04-26T00:38:54.685Z,1004.52
2017-04-26T00:39:54.692Z,1004.5
2017-04-26T00:40:54.697Z,1004.52
2017-04-26T00:41:54.754Z,1004.54
2017-04-26T00:42:54.711Z,1004.59
2017-04-26T00:43:54.718Z,1004.6
2017-04-26T00:44:54.725Z,1004.63
2017-04-26T00:45:54.730Z,1004.62
2017-04-26T00:46:54.737Z,1004.6
2017-04-26T00:47:54.745Z,1004.6
2017-04-26T00:48:54.749Z,1004.54
2017-04-26T00:49:54.808Z,1004.55
2017-04-26T00:50:54.765Z,1004.5
2017-04-26T00:51:54.769Z,1004.51
2017-04-26T00:52:54.775Z,1004.49
2017-04-26T00:53:54.783Z,1004.51
2017-04-26T00:54:54.805Z,1004.45
2017-04-26T00:55:54.794Z,1004.46
2017-04-26T00:56:54.801Z,1004.47
2017-04-26T00:57:54.808Z,1004.48
2017-04-26T00:58:54.865Z,1004.49
2017-04-26T00:59:54.821Z,1004.49
2017-04-26T01:00:54.828Z,1004.51
2017-04-26T01:01:54.883Z,1004.47
2017-04-26T01:02:54.841Z,1004.5
2017-04-26T01:03:54.845Z,1004.5
2017-04-26T01:04:54.852Z,1004.5
2017-04-26T01:05:54.908Z,1004.54
2017-04-26T01:06:54.863Z,1004.52
2017-04-26T01:07:54.870Z,1004.56
2017-04-26T01:08:54.875Z,1004.58
2017-04-26T01:09:54.882Z,1004.55
2017-04-26T01:10:54.888Z,1004.54
2017-04-26T01:11:54.892Z,1004.56
2017-04-26T01:12:54.897Z,1004.51
2017-04-26T01:13:54.953Z,1004.49
2017-04-26T01:14:54.955Z,1004.48
2017-04-26T01:15:54.964Z,1004.46
2017-04-26T01:16:54.919Z,1004.49
2017-04-26T01:17:54.926Z,1004.42
2017-04-26T01:18:54.930Z,1004.46
2017-04-26T01:19:54.986Z,1004.49
2017-04-26T01:20:54.941Z,1004.52
2017-04-26T01:21:54.946Z,1004.53
2017-04-26T01:22:54.951Z,1004.53
2017-04-26T01:23:54.959Z,1004.54
2017-04-26T01:24:54.965Z,1004.53
2017-04-26T01:25:54.969Z,1004.55
2017-04-26T01:26:54.975Z,1004.53
2017-04-26T01:27:54.982Z,1004.52
2017-04-26T01:28:54.985Z,1004.51
2017-04-26T01:29:55.056Z,1004.53
2017-04-26T01:30:55.008Z,1004.54
2017-04-26T01:31:55.017Z,1004.52
2017-04-26T01:32:55.020Z,1004.57
2017-04-26T01:33:55.033Z,1004.55
2017-04-26T01:34:55.037Z,1004.53
2017-04-26T01:35:55.041Z,1004.52
2017-04-26T01:36:55.084Z,1004.57
2017-04-26T01:37:55.052Z,1004.58
2017-04-26T01:38:55.058Z,1004.59
2017-04-26T01:39:55.052Z,1004.58
2017-04-26T01:40:55.110Z,1004.61
2017-04-26T01:41:55.065Z,1004.61
2017-04-26T01:42:55.122Z,1004.61
2017-04-26T01:43:55.076Z,1004.61
2017-04-26T01:44:55.083Z,1004.59
2017-04-26T01:45:55.089Z,1004.56
2017-04-26T01:46:55.105Z,1004.56
2017-04-26T01:47:55.116Z,1004.59
2017-04-26T01:48:55.116Z,1004.57
2017-04-26T01:49:55.116Z,1004.61
2017-04-26T01:50:55.119Z,1004.6
2017-04-26T01:51:55.190Z,1004.61
2017-04-26T01:52:55.143Z,1004.57
2017-04-26T01:53:55.137Z,1004.57
2017-04-26T01:54:55.144Z,1004.58
2017-04-26T01:55:55.148Z,1004.57
2017-04-26T01:56:55.205Z,1004.55
2017-04-26T01:57:55.173Z,1004.55
2017-04-26T01:58:55.177Z,1004.56
2017-04-26T01:59:55.186Z,1004.55
2017-04-26T02:00:55.180Z,1004.52
2017-04-26T02:01:55.186Z,1004.55
2017-04-26T02:02:55.205Z,1004.5
2017-04-26T02:03:55.214Z,1004.5
2017-04-26T02:04:55.204Z,1004.52
2017-04-26T02:05:55.210Z,1004.53
2017-04-26T02:06:55.215Z,1004.51
2017-04-26T02:07:55.523Z,1004.53
2017-04-26T02:08:55.290Z,1004.48
2017-04-26T02:09:55.248Z,1004.53
2017-04-26T02:10:55.239Z,1004.52
2017-04-26T02:11:55.258Z,1004.55
2017-04-26T02:12:55.252Z,1004.55
2017-04-26T02:13:55.258Z,1004.62
2017-04-26T02:14:55.314Z,1004.56
2017-04-26T02:15:55.284Z,1004.57
2017-04-26T02:16:55.275Z,1004.59
2017-04-26T02:17:55.283Z,1004.57
2017-04-26T02:18:55.287Z,1004.57
2017-04-26T02:19:55.293Z,1004.57
2017-04-26T02:20:55.348Z,1004.56
2017-04-26T02:21:55.305Z,1004.56
2017-04-26T02:22:55.311Z,1004.54
2017-04-26T02:23:55.318Z,1004.58
2017-04-26T02:24:55.324Z,1004.57
2017-04-26T02:25:55.329Z,1004.58
2017-04-26T02:26:55.336Z,1004.64
2017-04-26T02:27:55.340Z,1004.61
2017-04-26T02:28:55.398Z,1004.61
2017-04-26T02:29:55.355Z,1004.61
2017-04-26T02:30:55.360Z,1004.6
2017-04-26T02:31:55.364Z,1004.57
2017-04-26T02:32:55.373Z,1004.6
2017-04-26T02:33:55.378Z,1004.6
2017-04-26T02:34:55.385Z,1004.6
2017-04-26T02:35:55.389Z,1004.56
2017-04-26T02:36:55.446Z,1004.55
2017-04-26T02:37:55.404Z,1004.56
2017-04-26T02:38:55.408Z,1004.57
2017-04-26T02:39:55.415Z,1004.53
2017-04-26T02:40:55.471Z,1004.55
2017-04-26T02:41:55.428Z,1004.59
2017-04-26T02:42:55.434Z,1004.55
2017-04-26T02:43:55.441Z,1004.55
2017-04-26T02:44:55.446Z,1004.58
2017-04-26T02:45:55.452Z,1004.52
2017-04-26T02:46:55.460Z,1004.55
2017-04-26T02:47:55.466Z,1004.52
2017-04-26T02:48:55.472Z,1004.55
2017-04-26T02:49:55.478Z,1004.56
2017-04-26T02:50:55.484Z,1004.55
2017-04-26T02:51:55.490Z,1004.5
2017-04-26T02:52:55.500Z,1004.54
2017-04-26T02:53:55.503Z,1004.49
2017-04-26T02:54:55.510Z,1004.53
2017-04-26T02:55:55.515Z,1004.52
2017-04-26T02:56:55.572Z,1004.51
2017-04-26T02:57:55.528Z,1004.52
2017-04-26T02:58:55.535Z,1004.54
2017-04-26T02:59:55.542Z,1004.55
2017-04-26T03:00:55.546Z,1004.56
2017-04-26T03:01:55.553Z,1004.54
2017-04-26T03:02:55.559Z,1004.54
2017-04-26T03:03:55.633Z,1004.55
2017-04-26T03:04:55.571Z,1004.54
2017-04-26T03:05:55.580Z,1004.54
2017-04-26T03:06:55.584Z,1004.51
2017-04-26T03:07:55.590Z,1004.49
2017-04-26T03:08:55.647Z,1004.46
2017-04-26T03:09:55.603Z,1004.46
2017-04-26T03:10:55.609Z,1004.45
2017-04-26T03:11:55.616Z,1004.45
2017-04-26T03:12:55.622Z,1004.45
2017-04-26T03:13:55.628Z,1004.44
2017-04-26T03:14:55.685Z,1004.45
2017-04-26T03:15:55.639Z,1004.43
2017-04-26T03:16:55.646Z,1004.43
2017-04-26T03:17:55.653Z,1004.4
2017-04-26T03:18:55.659Z,1004.41
2017-04-26T03:19:55.665Z,1004.44
2017-04-26T03:20:55.673Z,1004.44
2017-04-26T03:21:55.713Z,1004.46
2017-04-26T03:22:55.684Z,1004.45
2017-04-26T03:23:55.690Z,1004.43
2017-04-26T03:24:55.746Z,1004.42
2017-04-26T03:25:55.704Z,1004.42
2017-04-26T03:26:55.709Z,1004.39
2017-04-26T03:27:55.716Z,1004.38
2017-04-26T03:28:55.723Z,1004.4
2017-04-26T03:29:55.729Z,1004.39
2017-04-26T03:30:55.734Z,1004.42
2017-04-26T03:31:55.741Z,1004.41
2017-04-26T03:32:55.747Z,1004.42
2017-04-26T03:33:55.803Z,1004.39
2017-04-26T03:34:55.759Z,1004.4
2017-04-26T03:35:55.767Z,1004.42
2017-04-26T03:36:55.773Z,1004.42
2017-04-26T03:37:55.779Z,1004.4
2017-04-26T03:38:55.785Z,1004.39
2017-04-26T03:39:55.792Z,1004.39
2017-04-26T03:40:55.798Z,1004.4
2017-04-26T03:41:55.807Z,1004.36
2017-04-26T03:42:55.810Z,1004.32
2017-04-26T03:43:55.867Z,1004.34
2017-04-26T03:44:55.822Z,1004.3
2017-04-26T03:45:55.828Z,1004.32
2017-04-26T03:46:55.886Z,1004.28
2017-04-26T03:47:55.841Z,1004.29
2017-04-26T03:48:55.848Z,1004.29
2017-04-26T03:49:55.856Z,1004.31
2017-04-26T03:50:55.860Z,1004.3
2017-04-26T03:51:55.917Z,1004.31
2017-04-26T03:52:55.873Z,1004.31
2017-04-26T03:53:55.880Z,1004.32
2017-04-26T03:54:55.886Z,1004.32
2017-04-26T03:55:55.943Z,1004.35
2017-04-26T03:56:55.897Z,1004.33
2017-04-26T03:57:55.904Z,1004.34
2017-04-26T03:58:55.911Z,1004.34
2017-04-26T03:59:55.916Z,1004.31
2017-04-26T04:00:55.923Z,1004.35
2017-04-26T04:01:55.980Z,1004.35
2017-04-26T04:02:55.934Z,1004.37
2017-04-26T04:03:55.940Z,1004.36
2017-04-26T04:04:55.946Z,1004.32
2017-04-26T04:05:55.954Z,1004.39
2017-04-26T04:06:56.010Z,1004.41
2017-04-26T04:07:55.967Z,1004.35
2017-04-26T04:08:55.973Z,1004.4
2017-04-26T04:09:56.029Z,1004.38
2017-04-26T04:10:55.987Z,1004.38
2017-04-26T04:11:55.991Z,1004.36
2017-04-26T04:12:55.997Z,1004.41
2017-04-26T04:13:56.003Z,1004.4
2017-04-26T04:14:56.010Z,1004.4
2017-04-26T04:15:56.014Z,1004.35
2017-04-26T04:16:56.072Z,1004.37
2017-04-26T04:17:56.029Z,1004.4
2017-04-26T04:18:56.034Z,1004.38
2017-04-26T04:19:56.040Z,1004.4
2017-04-26T04:20:56.046Z,1004.43
2017-04-26T04:21:56.050Z,1004.42
2017-04-26T04:22:56.058Z,1004.38
2017-04-26T04:23:56.064Z,1004.37
2017-04-26T04:24:56.072Z,1004.43
2017-04-26T04:25:56.127Z,1004.38
2017-04-26T04:26:56.083Z,1004.4
2017-04-26T04:27:56.090Z,1004.45
2017-04-26T04:28:56.095Z,1004.4
2017-04-26T04:29:56.101Z,1004.43
2017-04-26T04:30:56.108Z,1004.48
2017-04-26T04:31:56.163Z,1004.46
2017-04-26T04:32:56.119Z,1004.48
2017-04-26T04:33:56.125Z,1004.51
2017-04-26T04:34:56.132Z,1004.49
2017-04-26T04:35:56.137Z,1004.48
2017-04-26T04:36:56.144Z,1004.48
2017-04-26T04:37:56.150Z,1004.51
2017-04-26T04:38:56.157Z,1004.5
2017-04-26T04:39:56.162Z,1004.51
2017-04-26T04:40:56.168Z,1004.49
2017-04-26T04:41:56.174Z,1004.49
2017-04-26T04:42:56.182Z,1004.47
2017-04-26T04:43:56.187Z,1004.49
2017-04-26T04:44:56.194Z,1004.48
2017-04-26T04:45:56.199Z,1004.49
2017-04-26T04:46:56.205Z,1004.52
2017-04-26T04:47:56.212Z,1004.53
2017-04-26T04:48:56.217Z,1004.54
2017-04-26T04:49:56.225Z,1004.54
2017-04-26T04:50:56.279Z,1004.54
2017-04-26T04:51:56.237Z,1004.58
2017-04-26T04:52:56.243Z,1004.56
2017-04-26T04:53:56.248Z,1004.58
2017-04-26T04:54:56.254Z,1004.6
2017-04-26T04:55:56.260Z,1004.58
2017-04-26T04:56:56.267Z,1004.6
2017-04-26T04:57:56.273Z,1004.57
2017-04-26T04:58:56.329Z,1004.56
2017-04-26T04:59:56.286Z,1004.62
2017-04-26T05:00:56.291Z,1004.59
2017-04-26T05:01:56.297Z,1004.64
2017-04-26T05:02:56.304Z,1004.61
2017-04-26T05:03:56.310Z,1004.69
2017-04-26T05:04:56.365Z,1004.7
2017-04-26T05:05:56.323Z,1004.71
2017-04-26T05:06:56.379Z,1004.73
2017-04-26T05:07:56.337Z,1004.65
2017-04-26T05:08:56.340Z,1004.72
2017-04-26T05:09:56.348Z,1004.73
2017-04-26T05:10:56.353Z,1004.72
2017-04-26T05:11:56.361Z,1004.73
2017-04-26T05:12:56.367Z,1004.71
2017-04-26T05:13:56.422Z,1004.71
2017-04-26T05:14:56.378Z,1004.75
2017-04-26T05:15:56.384Z,1004.75
2017-04-26T05:16:56.392Z,1004.74
2017-04-26T05:17:56.398Z,1004.75
2017-04-26T05:18:56.407Z,1004.77
2017-04-26T05:19:56.409Z,1004.79
2017-04-26T05:20:56.414Z,1004.81
2017-04-26T05:21:56.421Z,1004.82
2017-04-26T05:22:56.454Z,1004.8
2017-04-26T05:23:56.434Z,1004.79
2017-04-26T05:24:56.441Z,1004.8
2017-04-26T05:25:56.449Z,1004.82
2017-04-26T05:26:56.453Z,1004.81
2017-04-26T05:27:56.461Z,1004.78
2017-04-26T05:28:56.466Z,1004.85
2017-04-26T05:29:56.473Z,1004.83
2017-04-26T05:30:56.478Z,1004.89
2017-04-26T05:31:56.485Z,1004.89
2017-04-26T05:32:56.491Z,1004.92
2017-04-26T05:33:56.497Z,1004.91
2017-04-26T05:34:56.504Z,1004.89
2017-04-26T05:35:56.511Z,1004.94
2017-04-26T05:36:56.518Z,1004.91
2017-04-26T05:37:56.523Z,1004.87
2017-04-26T05:38:56.531Z,1004.89
2017-04-26T05:39:56.536Z,1004.91
2017-04-26T05:40:56.545Z,1004.94
2017-04-26T05:41:56.549Z,1004.96
2017-04-26T05:42:56.605Z,1005.03
2017-04-26T05:43:56.562Z,1005.1
2017-04-26T05:44:56.568Z,1005.31
2017-04-26T05:45:56.573Z,1005.41
2017-04-26T05:46:56.581Z,1005.3
2017-04-26T05:47:56.599Z,1005.25
2017-04-26T05:48:56.648Z,1005.05
2017-04-26T05:49:56.601Z,1005.04
2017-04-26T05:50:56.657Z,1005.04
2017-04-26T05:51:56.619Z,1005.04
2017-04-26T05:52:56.620Z,1005
2017-04-26T05:53:56.628Z,1004.99
2017-04-26T05:54:56.633Z,1005
2017-04-26T05:55:56.939Z,1004.99
2017-04-26T05:56:56.646Z,1004.99
2017-04-26T05:57:56.654Z,1005.07
2017-04-26T05:58:56.708Z,1005.08
2017-04-26T05:59:56.666Z,1005.05
2017-04-26T06:00:56.673Z,1005.08
2017-04-26T06:01:56.679Z,1005.04
2017-04-26T06:02:56.686Z,1005.1
2017-04-26T06:03:56.692Z,1005.09
2017-04-26T06:04:56.700Z,1005.1
2017-04-26T06:05:56.706Z,1005.13
2017-04-26T06:06:56.711Z,1005.08
2017-04-26T06:07:56.717Z,1005.12
2017-04-26T06:08:56.724Z,1005.15
2017-04-26T06:09:56.729Z,1005.17
2017-04-26T06:10:56.736Z,1005.18
2017-04-26T06:11:56.742Z,1005.21
2017-04-26T06:12:56.748Z,1005.2
2017-04-26T06:13:56.754Z,1005.23
2017-04-26T06:14:56.758Z,1005.22
2017-04-26T06:15:56.765Z,1005.27
2017-04-26T06:16:56.772Z,1005.27
2017-04-26T06:17:56.777Z,1005.29
2017-04-26T06:18:56.782Z,1005.3
2017-04-26T06:19:56.789Z,1005.28
2017-04-26T06:20:56.796Z,1005.29
2017-04-26T06:21:56.801Z,1005.26
2017-04-26T06:22:56.859Z,1005.3
2017-04-26T06:23:56.814Z,1005.31
2017-04-26T06:24:56.872Z,1005.3
2017-04-26T06:25:56.826Z,1005.33
2017-04-26T06:26:56.834Z,1005.28
2017-04-26T06:27:56.889Z,1005.3
2017-04-26T06:28:56.845Z,1005.27
2017-04-26T06:29:56.852Z,1005.31
2017-04-26T06:30:56.857Z,1005.3
2017-04-26T06:31:56.866Z,1005.33
2017-04-26T06:32:56.872Z,1005.37
2017-04-26T06:33:56.877Z,1005.37
2017-04-26T06:34:56.884Z,1005.37
2017-04-26T06:35:56.890Z,1005.42
2017-04-26T06:36:56.946Z,1005.37
2017-04-26T06:37:56.903Z,1005.43
2017-04-26T06:38:56.910Z,1005.42
2017-04-26T06:39:56.913Z,1005.41
2017-04-26T06:40:56.921Z,1005.44
2017-04-26T06:41:56.929Z,1005.42
2017-04-26T06:42:56.948Z,1005.42
2017-04-26T06:43:56.991Z,1005.41
2017-04-26T06:44:56.947Z,1005.41
2017-04-26T06:45:56.959Z,1005.43
2017-04-26T06:46:56.962Z,1005.42
2017-04-26T06:47:56.965Z,1005.44
2017-04-26T06:48:56.971Z,1005.46
2017-04-26T06:49:56.978Z,1005.44
2017-04-26T06:50:56.984Z,1005.46
2017-04-26T06:51:56.990Z,1005.43
2017-04-26T06:52:57.047Z,1005.45
2017-04-26T06:53:57.002Z,1005.48
2017-04-26T06:54:57.008Z,1005.49
2017-04-26T06:55:57.016Z,1005.5
2017-04-26T06:56:57.024Z,1005.48
2017-04-26T06:57:57.028Z,1005.46
2017-04-26T06:58:57.037Z,1005.48
2017-04-26T06:59:57.043Z,1005.48
2017-04-26T07:00:57.048Z,1005.46
2017-04-26T07:01:57.103Z,1005.45
2017-04-26T07:02:57.060Z,1005.47
2017-04-26T07:03:57.068Z,1005.45
2017-04-26T07:04:57.073Z,1005.44
2017-04-26T07:05:57.128Z,1005.48
2017-04-26T07:06:57.084Z,1005.46
2017-04-26T07:07:57.091Z,1005.43
2017-04-26T07:08:57.098Z,1005.46
2017-04-26T07:09:57.102Z,1005.45
2017-04-26T07:10:57.110Z,1005.48
2017-04-26T07:11:57.116Z,1005.5
2017-04-26T07:12:57.172Z,1005.48
2017-04-26T07:13:57.129Z,1005.49
2017-04-26T07:14:57.135Z,1005.49
2017-04-26T07:15:57.142Z,1005.5
2017-04-26T07:16:57.147Z,1005.5
2017-04-26T07:17:57.155Z,1005.52
2017-04-26T07:18:57.160Z,1005.5
2017-04-26T07:19:57.167Z,1005.51
2017-04-26T07:20:57.172Z,1005.48
2017-04-26T07:21:57.179Z,1005.47
2017-04-26T07:22:57.186Z,1005.5
2017-04-26T07:23:57.192Z,1005.53
2017-04-26T07:24:57.200Z,1005.49
2017-04-26T07:25:57.205Z,1005.47
2017-04-26T07:26:57.213Z,1005.49
2017-04-26T07:27:57.266Z,1005.54
2017-04-26T07:28:57.224Z,1005.52
2017-04-26T07:29:57.230Z,1005.51
2017-04-26T07:30:57.236Z,1005.56
2017-04-26T07:31:57.242Z,1005.52
2017-04-26T07:32:57.252Z,1005.52
2017-04-26T07:33:57.255Z,1005.55
2017-04-26T07:34:57.261Z,1005.53
2017-04-26T07:35:57.315Z,1005.5
2017-04-26T07:36:57.274Z,1005.49
2017-04-26T07:37:57.280Z,1005.5
2017-04-26T07:38:57.283Z,1005.49
2017-04-26T07:39:57.292Z,1005.53
2017-04-26T07:40:57.298Z,1005.5
2017-04-26T07:41:57.358Z,1005.54
2017-04-26T07:42:57.311Z,1005.51
2017-04-26T07:43:57.316Z,1005.51
2017-04-26T07:44:57.323Z,1005.53
2017-04-26T07:45:57.330Z,1005.5
2017-04-26T07:46:57.338Z,1005.52
2017-04-26T07:47:57.342Z,1005.54
2017-04-26T07:48:57.400Z,1005.54
2017-04-26T07:49:57.355Z,1005.54
2017-04-26T07:50:57.362Z,1005.54
2017-04-26T07:51:57.369Z,1005.57
2017-04-26T07:52:57.373Z,1005.6
2017-04-26T07:53:57.381Z,1005.57
2017-04-26T07:54:57.438Z,1005.56
2017-04-26T07:55:57.394Z,1005.59
2017-04-26T07:56:57.400Z,1005.57
2017-04-26T07:57:57.407Z,1005.57
2017-04-26T07:58:57.464Z,1005.59
2017-04-26T07:59:57.420Z,1005.55
2017-04-26T08:00:57.426Z,1005.58
2017-04-26T08:01:57.432Z,1005.6
2017-04-26T08:02:57.440Z,1005.59
2017-04-26T08:03:57.447Z,1005.59
2017-04-26T08:04:57.453Z,1005.57
2017-04-26T08:05:57.459Z,1005.63
2017-04-26T08:06:57.466Z,1005.61
2017-04-26T08:07:57.472Z,1005.62
2017-04-26T08:08:57.529Z,1005.65
2017-04-26T08:09:57.537Z,1005.65
2017-04-26T08:10:57.494Z,1005.61
2017-04-26T08:11:57.499Z,1005.64
2017-04-26T08:12:57.506Z,1005.63
2017-04-26T08:13:57.563Z,1005.64
2017-04-26T08:14:57.520Z,1005.67
2017-04-26T08:15:57.526Z,1005.65
2017-04-26T08:16:57.533Z,1005.67
2017-04-26T08:17:57.590Z,1005.67
2017-04-26T08:18:57.548Z,1005.68
2017-04-26T08:19:57.554Z,1005.74
2017-04-26T08:20:57.561Z,1005.76
2017-04-26T08:21:57.569Z,1005.77
2017-04-26T08:22:57.575Z,1005.76
2017-04-26T08:23:57.581Z,1005.79
2017-04-26T08:24:57.592Z,1005.78
2017-04-26T08:25:57.597Z,1005.78
2017-04-26T08:26:57.602Z,1005.78
2017-04-26T08:27:57.607Z,1005.74
2017-04-26T08:28:57.611Z,1005.81
2017-04-26T08:29:57.614Z,1005.8
2017-04-26T08:30:57.617Z,1005.81
2017-04-26T08:31:57.620Z,1005.88
2017-04-26T08:32:57.621Z,1005.81
2017-04-26T08:33:57.625Z,1005.77
2017-04-26T08:34:57.629Z,1005.84
2017-04-26T08:35:57.629Z,1005.79
2017-04-26T08:36:57.928Z,1005.78
2017-04-26T08:37:57.680Z,1005.83
2017-04-26T08:38:57.631Z,1005.83
2017-04-26T08:39:57.632Z,1005.85
2017-04-26T08:40:57.634Z,1005.78
2017-04-26T08:41:57.685Z,1005.84
2017-04-26T08:42:57.634Z,1005.89
2017-04-26T08:43:57.636Z,1005.85
2017-04-26T08:44:57.686Z,1005.85
2017-04-26T08:45:57.636Z,1005.84
2017-04-26T08:46:57.636Z,1005.87
2017-04-26T08:47:57.637Z,1005.85
2017-04-26T08:48:57.637Z,1005.87
2017-04-26T08:49:57.687Z,1005.9
2017-04-26T08:50:57.637Z,1005.9
2017-04-26T08:51:57.635Z,1005.85
2017-04-26T08:52:57.635Z,1005.81
2017-04-26T08:53:57.633Z,1005.86
2017-04-26T08:54:57.633Z,1005.86
2017-04-26T08:55:57.632Z,1005.85
2017-04-26T08:56:57.632Z,1005.81
2017-04-26T08:57:57.631Z,1005.81
2017-04-26T08:58:57.630Z,1005.83
2017-04-26T08:59:57.629Z,1005.83
2017-04-26T09:00:57.677Z,1005.86
2017-04-26T09:01:57.629Z,1005.88
2017-04-26T09:02:57.625Z,1005.9
2017-04-26T09:03:57.624Z,1005.91
2017-04-26T09:04:57.624Z,1005.92
2017-04-26T09:05:57.672Z,1005.92
2017-04-26T09:06:57.620Z,1005.91
2017-04-26T09:07:57.619Z,1005.94
2017-04-26T09:08:57.616Z,1005.94
2017-04-26T09:09:57.613Z,1005.98
2017-04-26T09:10:57.612Z,1006.01
2017-04-26T09:11:57.622Z,1005.97
2017-04-26T09:12:57.607Z,1005.97
2017-04-26T09:13:57.604Z,1006
2017-04-26T09:14:57.602Z,1006.02
2017-04-26T09:15:57.601Z,1006.05
2017-04-26T09:16:57.599Z,1006.04
2017-04-26T09:17:57.604Z,1006.02
2017-04-26T09:18:57.597Z,1006.04
2017-04-26T09:19:57.600Z,1006.04
2017-04-26T09:20:57.597Z,1006.03
2017-04-26T09:21:57.596Z,1006.04
2017-04-26T09:22:57.596Z,1006.06
2017-04-26T09:23:57.599Z,1006.07
2017-04-26T09:24:57.647Z,1006.07
2017-04-26T09:25:57.597Z,1006.09
2017-04-26T09:26:57.598Z,1006.1
2017-04-26T09:27:57.600Z,1006.04
2017-04-26T09:28:57.598Z,1006.11
2017-04-26T09:29:57.623Z,1006.08
2017-04-26T09:30:57.601Z,1006.07
2017-04-26T09:31:57.601Z,1006.12
2017-04-26T09:32:57.602Z,1006.12
2017-04-26T09:33:57.604Z,1006.11
2017-04-26T09:34:57.603Z,1006.14
2017-04-26T09:35:57.615Z,1006.12
2017-04-26T09:36:57.609Z,1006.14
2017-04-26T09:37:57.611Z,1006.12
2017-04-26T09:38:57.608Z,1006.12
2017-04-26T09:39:57.610Z,1006.09
2017-04-26T09:40:57.611Z,1006.12
2017-04-26T09:41:57.612Z,1006.1
2017-04-26T09:42:57.613Z,1006.13
2017-04-26T09:43:57.612Z,1006.15
2017-04-26T09:44:57.664Z,1006.14
2017-04-26T09:45:57.614Z,1006.19
2017-04-26T09:46:57.616Z,1006.16
2017-04-26T09:47:57.615Z,1006.14
2017-04-26T09:48:57.667Z,1006.13
2017-04-26T09:49:57.616Z,1006.13
2017-04-26T09:50:57.617Z,1006.14
2017-04-26T09:51:57.669Z,1006.17
2017-04-26T09:52:57.667Z,1006.18
2017-04-26T09:53:57.617Z,1006.2
2017-04-26T09:54:57.618Z,1006.23
2017-04-26T09:55:57.620Z,1006.21
2017-04-26T09:56:57.920Z,1006.24
2017-04-26T09:57:57.620Z,1006.22
2017-04-26T09:58:57.621Z,1006.23
2017-04-26T09:59:57.621Z,1006.24
2017-04-26T10:00:57.620Z,1006.28
2017-04-26T10:01:57.624Z,1006.25
2017-04-26T10:02:57.621Z,1006.23
2017-04-26T10:03:57.622Z,1006.22
2017-04-26T10:04:57.622Z,1006.21
2017-04-26T10:05:57.623Z,1006.2
2017-04-26T10:06:57.670Z,1006.24
2017-04-26T10:07:57.622Z,1006.25
2017-04-26T10:08:57.625Z,1006.24
2017-04-26T10:09:57.623Z,1006.23
2017-04-26T10:10:57.625Z,1006.2
2017-04-26T10:11:57.624Z,1006.23
2017-04-26T10:12:57.625Z,1006.18
2017-04-26T10:13:57.629Z,1006.26
2017-04-26T10:15:09.789Z,1006.18
2017-04-26T10:16:09.742Z,1006.15
2017-04-26T10:17:09.745Z,1006.13
2017-04-26T10:18:09.749Z,1006.15
2017-04-26T10:19:09.753Z,1006.16
2017-04-26T10:20:09.757Z,1006.16
2017-04-26T10:21:09.763Z,1006.12
2017-04-26T10:22:09.767Z,1006.17
2017-04-26T10:23:09.773Z,1006.16
2017-04-26T10:24:09.778Z,1006.17
2017-04-26T10:25:09.785Z,1006.19
2017-04-26T10:26:09.838Z,1006.13
2017-04-26T10:27:09.794Z,1006.19
2017-04-26T10:28:09.799Z,1006.19
2017-04-26T10:29:09.805Z,1006.21
2017-04-26T10:30:09.817Z,1006.21
2017-04-26T10:31:09.817Z,1006.21
2017-04-26T10:32:09.825Z,1006.22
2017-04-26T10:33:09.830Z,1006.21
2017-04-26T10:34:09.835Z,1006.24
2017-04-26T10:35:09.892Z,1006.22
2017-04-26T10:36:09.927Z,1006.28
2017-04-26T10:37:09.855Z,1006.25
2017-04-26T10:38:09.862Z,1006.28
2017-04-26T10:39:09.867Z,1006.25
2017-04-26T10:40:09.874Z,1006.24
2017-04-26T10:41:09.881Z,1006.25
2017-04-26T10:42:09.887Z,1006.29
2017-04-26T10:43:09.894Z,1006.26
2017-04-26T10:44:09.900Z,1006.27
2017-04-26T10:45:09.906Z,1006.28
2017-04-26T10:46:09.912Z,1006.25
2017-04-26T10:47:09.920Z,1006.27
2017-04-26T10:48:09.927Z,1006.28
2017-04-26T10:49:11.186Z,1006.26
2017-04-26T10:50:09.939Z,1006.23
2017-04-26T10:51:09.946Z,1006.22
2017-04-26T10:52:09.953Z,1006.21
2017-04-26T10:53:09.959Z,1006.21
2017-04-26T10:54:09.965Z,1006.2
2017-04-26T10:55:09.975Z,1006.17
2017-04-26T10:56:09.979Z,1006.18
2017-04-26T10:57:09.984Z,1006.23
2017-04-26T10:58:09.991Z,1006.18
2017-04-26T10:59:09.999Z,1006.18
2017-04-26T11:00:10.005Z,1006.18
2017-04-26T11:01:10.011Z,1006.16
2017-04-26T11:02:10.016Z,1006.14
2017-04-26T11:03:10.023Z,1006.18
2017-04-26T11:04:10.029Z,1006.15
2017-04-26T11:05:10.036Z,1006.15
2017-04-26T11:06:10.042Z,1006.15
2017-04-26T11:07:10.050Z,1006.14
2017-04-26T11:08:10.104Z,1006.06
2017-04-26T11:09:10.060Z,1006.08
2017-04-26T11:10:10.120Z,1006.04
2017-04-26T11:11:10.073Z,1006.02
2017-04-26T11:12:10.080Z,1006.06
2017-04-26T11:13:10.086Z,1006.07
2017-04-26T11:14:10.094Z,1006.05
2017-04-26T11:15:10.101Z,1006.04
2017-04-26T11:16:10.108Z,1006.05
2017-04-26T11:17:10.114Z,1006.03
2017-04-26T11:18:10.121Z,1006.07
2017-04-26T11:19:10.126Z,1006.08
2017-04-26T11:20:10.134Z,1006.04
2017-04-26T11:21:10.139Z,1006.06
2017-04-26T11:22:10.145Z,1006.04
2017-04-26T11:23:10.153Z,1006.05
2017-04-26T11:24:10.158Z,1006.02
2017-04-26T11:25:10.166Z,1006.03
2017-04-26T11:26:10.170Z,1006.01
2017-04-26T11:27:10.181Z,1005.99
2017-04-26T11:28:10.185Z,1005.98
2017-04-26T11:29:10.193Z,1005.99
2017-04-26T11:30:10.247Z,1005.98
2017-04-26T11:31:10.204Z,1005.99
2017-04-26T11:32:10.210Z,1005.97
2017-04-26T11:33:10.217Z,1005.98
2017-04-26T11:34:10.274Z,1005.97
2017-04-26T11:35:10.231Z,1005.97
2017-04-26T11:36:10.238Z,1005.95
2017-04-26T11:37:10.243Z,1005.98
2017-04-26T11:38:10.277Z,1006
2017-04-26T11:39:10.257Z,1005.99
2017-04-26T11:40:10.264Z,1005.98
2017-04-26T11:41:10.271Z,1006.01
2017-04-26T11:42:10.278Z,1005.96
2017-04-26T11:43:10.286Z,1005.97
2017-04-26T11:44:10.290Z,1005.95
2017-04-26T11:45:10.296Z,1005.94
2017-04-26T11:46:10.303Z,1005.98
2017-04-26T11:47:10.310Z,1005.93
2017-04-26T11:48:10.316Z,1005.93
2017-04-26T11:49:10.371Z,1005.91
2017-04-26T11:50:10.329Z,1005.87
2017-04-26T11:51:10.336Z,1005.86
2017-04-26T11:52:10.342Z,1005.85
2017-04-26T11:53:10.347Z,1005.84
2017-04-26T11:54:10.354Z,1005.86
2017-04-26T11:55:10.361Z,1005.88
2017-04-26T11:56:10.367Z,1005.88
2017-04-26T11:57:10.374Z,1005.87
2017-04-26T11:58:10.381Z,1005.83
2017-04-26T11:59:10.387Z,1005.89
2017-04-26T12:00:10.393Z,1005.87
2017-04-26T12:01:10.399Z,1005.93
2017-04-26T12:02:10.406Z,1005.94
2017-04-26T12:03:10.412Z,1005.99
2017-04-26T12:04:10.417Z,1005.97
2017-04-26T12:05:10.432Z,1005.99
2017-04-26T12:06:10.481Z,1006.02
2017-04-26T12:07:10.437Z,1006.04
2017-04-26T12:08:10.441Z,1006.03
2017-04-26T12:09:10.450Z,1006.13
2017-04-26T12:10:10.454Z,1006.12
2017-04-26T12:11:10.462Z,1006.23
2017-04-26T12:12:10.467Z,1006.22
2017-04-26T12:13:10.475Z,1006.21
2017-04-26T12:14:10.482Z,1006.22